Time;durP1;ratioP1;P1;durP2;ratioP2;P2;SDS_P1;SDS_P2;PMS_P1;PMS_P2;Temp;Humidity;BMP_temperature;BMP_pressure;BME280_temperature;BME280_humidity;BME280_pressure;Samples;Min_cycle;Max_cycle;Signal;HPM_P1;HPM_P2
2022/03/04 00:01:55;;;;;;;7.33;5.33;;;0.90;99.90;;;;;;5012286;28;20678;-78
2022/03/04 00:04:21;;;;;;;11.07;5.67;;;0.90;99.90;;;;;;5012236;28;20222;-77
2022/03/04 00:06:48;;;;;;;6.90;4.63;;;0.90;99.90;;;;;;5010741;28;20234;-79
2022/03/04 00:09:13;;;;;;;9.67;5.07;;;0.90;99.90;;;;;;5003702;28;20217;-78
2022/03/04 00:11:39;;;;;;;8.20;5.03;;;1.00;99.90;;;;;;4995345;28;20216;-77
2022/03/04 00:14:05;;;;;;;9.17;5.40;;;1.00;99.90;;;;;;5012373;28;20696;-77
2022/03/04 00:16:31;;;;;;;7.77;4.93;;;1.00;99.90;;;;;;4997627;28;20210;-76
2022/03/04 00:19:06;;;;;;;8.73;5.03;;;0.90;99.90;;;;;;5012453;28;20206;-76
2022/03/04 00:21:43;;;;;;;9.43;5.17;;;1.00;99.90;;;;;;4997671;28;20257;-77
2022/03/04 00:24:10;;;;;;;11.40;6.57;;;1.00;99.90;;;;;;4997537;28;20211;-80
2022/03/04 00:26:38;;;;;;;10.03;6.10;;;1.00;99.90;;;;;;4996603;28;20298;-77
2022/03/04 00:29:05;;;;;;;8.67;5.87;;;1.00;99.90;;;;;;4996782;28;20254;-79
2022/03/04 00:31:31;;;;;;;11.50;6.50;;;1.00;99.90;;;;;;4999088;28;20207;-80
2022/03/04 00:33:57;;;;;;;9.67;6.33;;;1.00;99.90;;;;;;4998332;28;20192;-77
2022/03/04 00:36:23;;;;;;;9.13;5.93;;;1.00;99.90;;;;;;4995222;28;20283;-79
2022/03/04 00:38:54;;;;;;;8.20;4.17;;;1.00;99.90;;;;;;4998677;28;20188;-78
2022/03/04 00:41:21;;;;;;;7.77;4.60;;;1.00;99.90;;;;;;4997783;28;20203;-79
2022/03/04 00:43:47;;;;;;;8.43;5.53;;;1.00;99.90;;;;;;5004479;28;20211;-80
2022/03/04 00:46:13;;;;;;;7.17;4.47;;;1.00;99.90;;;;;;5013553;28;20187;-79
2022/03/04 00:48:41;;;;;;;8.53;5.13;;;1.00;99.90;;;;;;5011862;28;20180;-78
2022/03/04 00:51:07;;;;;;;8.43;4.70;;;1.00;99.90;;;;;;4998220;28;20218;-77
2022/03/04 00:53:32;;;;;;;9.77;4.77;;;1.10;99.90;;;;;;4997802;28;20243;-77
2022/03/04 00:55:58;;;;;;;8.13;4.67;;;1.00;99.90;;;;;;4995476;28;20184;-78
2022/03/04 00:58:24;;;;;;;9.43;5.57;;;1.00;99.90;;;;;;4996790;28;20211;-77
2022/03/04 01:00:50;;;;;;;11.10;6.57;;;1.00;99.90;;;;;;5012260;28;20196;-78
2022/03/04 01:03:15;;;;;;;9.53;5.60;;;1.00;99.90;;;;;;4997617;28;20226;-78
2022/03/04 01:05:41;;;;;;;15.57;5.93;;;1.00;99.90;;;;;;4996137;28;20200;-77
2022/03/04 01:08:07;;;;;;;10.67;6.03;;;1.00;99.90;;;;;;4995470;28;20180;-78
2022/03/04 01:10:34;;;;;;;8.57;5.87;;;1.00;99.90;;;;;;5011667;28;20207;-77
2022/03/04 01:13:00;;;;;;;8.13;5.80;;;1.00;99.90;;;;;;5012660;28;20209;-77
2022/03/04 01:15:25;;;;;;;6.43;5.30;;;1.00;99.90;;;;;;5013330;28;20688;-77
2022/03/04 01:17:51;;;;;;;9.40;6.20;;;1.00;99.90;;;;;;5012615;28;20679;-78
2022/03/04 01:20:16;;;;;;;9.50;5.37;;;1.00;99.90;;;;;;5016267;28;20259;-78
2022/03/04 01:22:42;;;;;;;9.67;5.50;;;0.90;99.90;;;;;;5000669;28;20669;-78
2022/03/04 01:25:08;;;;;;;7.93;5.63;;;0.90;99.90;;;;;;5012407;28;20202;-77
2022/03/04 01:27:34;;;;;;;8.20;4.90;;;0.90;99.90;;;;;;5015187;28;20180;-77
2022/03/04 01:30:00;;;;;;;9.30;5.33;;;0.90;99.90;;;;;;5017785;28;20184;-76
2022/03/04 01:32:25;;;;;;;8.73;5.83;;;0.90;99.90;;;;;;5014366;28;20185;-77
2022/03/04 01:34:51;;;;;;;7.90;4.93;;;1.00;99.90;;;;;;5015335;28;20237;-77
2022/03/04 01:37:17;;;;;;;8.97;4.93;;;0.90;99.90;;;;;;5016688;28;20211;-77
2022/03/04 01:39:42;;;;;;;7.60;5.07;;;1.00;99.90;;;;;;5018499;28;20193;-77
2022/03/04 01:42:08;;;;;;;8.73;4.83;;;0.90;99.90;;;;;;5015481;28;20328;-77
2022/03/04 01:44:34;;;;;;;7.60;5.03;;;1.00;99.90;;;;;;5021005;28;20184;-77
2022/03/04 01:47:00;;;;;;;7.40;4.63;;;0.90;99.90;;;;;;5032168;28;20195;-76
2022/03/04 01:49:26;;;;;;;9.83;5.70;;;0.90;99.90;;;;;;5016949;28;20187;-77
2022/03/04 01:51:51;;;;;;;8.13;4.80;;;0.90;99.90;;;;;;5006756;28;20701;-78
2022/03/04 01:54:17;;;;;;;6.97;4.40;;;0.90;99.90;;;;;;5002898;28;20270;-78
2022/03/04 01:56:43;;;;;;;10.70;5.17;;;0.90;99.90;;;;;;5001376;28;20272;-77
2022/03/04 01:59:08;;;;;;;8.77;4.50;;;0.80;99.90;;;;;;5001902;28;20180;-79
2022/03/04 02:01:35;;;;;;;9.50;5.20;;;0.90;99.90;;;;;;4999570;28;20334;-77
2022/03/04 02:04:00;;;;;;;9.27;4.63;;;0.90;99.90;;;;;;5001855;28;20697;-78
2022/03/04 02:06:26;;;;;;;5.80;4.20;;;0.90;99.90;;;;;;5001299;28;20199;-78
2022/03/04 02:08:52;;;;;;;9.43;4.50;;;0.90;99.90;;;;;;4999597;28;20629;-78
2022/03/04 02:11:17;;;;;;;8.67;5.13;;;0.90;99.90;;;;;;4999372;28;20665;-78
2022/03/04 02:13:43;;;;;;;7.63;4.80;;;0.90;99.90;;;;;;4998771;28;20187;-77
2022/03/04 02:16:19;;;;;;;7.03;4.30;;;0.90;99.90;;;;;;5015838;28;20190;-79
2022/03/04 02:18:46;;;;;;;8.80;5.13;;;0.90;99.90;;;;;;4999360;28;20185;-79
2022/03/04 02:21:13;;;;;;;8.50;5.13;;;0.90;99.90;;;;;;5015435;28;20204;-77
2022/03/04 02:23:39;;;;;;;7.30;4.73;;;0.90;99.90;;;;;;4999546;28;20265;-79
2022/03/04 02:26:05;;;;;;;7.77;4.97;;;0.90;99.90;;;;;;4997643;28;20183;-78
2022/03/04 02:28:31;;;;;;;7.10;4.67;;;0.80;99.90;;;;;;5015566;28;20286;-78
2022/03/04 02:30:56;;;;;;;7.27;4.50;;;0.80;99.90;;;;;;5000355;28;20683;-78
2022/03/04 02:33:22;;;;;;;7.23;4.63;;;0.90;99.90;;;;;;4998948;28;20238;-76
2022/03/04 02:35:48;;;;;;;6.40;4.37;;;0.80;99.90;;;;;;4999324;28;21226;-78
2022/03/04 02:38:13;;;;;;;8.77;4.23;;;0.80;99.90;;;;;;5001333;28;20223;-78
2022/03/04 02:40:39;;;;;;;7.73;4.63;;;0.80;99.90;;;;;;4998607;28;20204;-78
2022/03/04 02:43:05;;;;;;;7.97;4.73;;;0.80;99.90;;;;;;5015509;28;20189;-76
2022/03/04 02:45:38;;;;;;;9.13;5.50;;;0.80;99.90;;;;;;5013677;28;20287;-80
2022/03/04 02:48:04;;;;;;;9.07;5.30;;;0.80;99.90;;;;;;4998717;28;20188;-77
2022/03/04 02:50:30;;;;;;;8.60;5.23;;;0.80;99.90;;;;;;4999851;28;20265;-80
2022/03/04 02:52:56;;;;;;;8.87;5.50;;;0.80;99.90;;;;;;5000564;28;20188;-77
2022/03/04 02:55:21;;;;;;;6.93;4.67;;;0.80;99.90;;;;;;5016381;28;20180;-78
2022/03/04 02:57:48;;;;;;;8.10;5.57;;;0.80;99.90;;;;;;5006720;28;20207;-79
2022/03/04 03:00:15;;;;;;;8.90;5.03;;;0.70;99.90;;;;;;5012933;28;20222;-78
2022/03/04 03:02:42;;;;;;;7.50;4.97;;;0.80;99.90;;;;;;5014813;28;20262;-78
2022/03/04 03:05:09;;;;;;;7.07;5.07;;;0.80;99.90;;;;;;4999218;28;20200;-78
2022/03/04 03:07:35;;;;;;;9.03;5.17;;;0.80;99.90;;;;;;5000036;28;20220;-77
2022/03/04 03:10:02;;;;;;;8.03;5.10;;;0.80;99.90;;;;;;4999817;28;20200;-78
2022/03/04 03:12:27;;;;;;;8.30;4.93;;;0.70;99.90;;;;;;4999148;28;20271;-79
2022/03/04 03:14:53;;;;;;;6.57;4.47;;;0.60;99.90;;;;;;4998663;28;20327;-78
2022/03/04 03:17:18;;;;;;;8.43;4.93;;;0.60;99.90;;;;;;4999101;28;20208;-78
2022/03/04 03:19:44;;;;;;;7.73;4.33;;;0.60;99.90;;;;;;5016047;28;20184;-78
2022/03/04 03:22:09;;;;;;;8.10;5.13;;;0.70;99.90;;;;;;4998989;28;20200;-78
2022/03/04 03:24:35;;;;;;;7.73;5.00;;;0.70;99.90;;;;;;4999479;28;20184;-78
2022/03/04 03:27:01;;;;;;;8.20;4.80;;;0.70;99.90;;;;;;4999835;28;20275;-79
2022/03/04 03:29:26;;;;;;;7.37;4.23;;;0.70;99.90;;;;;;4999340;28;20199;-79
2022/03/04 03:31:52;;;;;;;8.00;5.03;;;0.70;99.90;;;;;;5000815;28;20686;-78
2022/03/04 03:34:17;;;;;;;5.77;4.50;;;0.70;99.90;;;;;;4998848;28;20238;-79
2022/03/04 03:36:43;;;;;;;9.50;5.60;;;0.70;99.90;;;;;;4997804;28;20208;-78
2022/03/04 03:39:09;;;;;;;8.33;5.53;;;0.60;99.90;;;;;;5000427;28;20190;-77
2022/03/04 03:41:35;;;;;;;10.13;5.37;;;0.60;99.90;;;;;;4997844;28;20205;-79
2022/03/04 03:44:01;;;;;;;9.30;6.00;;;0.50;99.90;;;;;;5014742;28;20191;-78
2022/03/04 03:46:27;;;;;;;10.37;6.20;;;0.50;99.90;;;;;;4997328;28;20188;-78
2022/03/04 03:48:53;;;;;;;9.47;5.60;;;0.40;99.90;;;;;;4997702;28;20192;-77
2022/03/04 03:51:18;;;;;;;9.13;5.53;;;0.40;99.90;;;;;;4999232;28;20199;-77
2022/03/04 03:53:44;;;;;;;8.83;5.63;;;0.40;99.90;;;;;;5001430;28;20738;-77
2022/03/04 03:56:10;;;;;;;9.33;5.40;;;0.40;99.90;;;;;;5000899;28;20243;-77
2022/03/04 03:58:35;;;;;;;11.03;6.27;;;0.30;99.90;;;;;;5002845;28;20200;-78
2022/03/04 04:01:01;;;;;;;8.90;5.47;;;0.30;99.90;;;;;;5018220;28;20228;-76
2022/03/04 04:03:27;;;;;;;8.83;5.20;;;0.30;99.90;;;;;;5001042;28;20203;-77
2022/03/04 04:05:53;;;;;;;8.90;5.33;;;0.20;99.90;;;;;;5015564;28;20275;-78
2022/03/04 04:08:18;;;;;;;8.53;5.87;;;0.20;99.90;;;;;;5000198;28;20184;-79
2022/03/04 04:10:44;;;;;;;7.07;4.93;;;0.30;99.90;;;;;;4997901;28;20223;-77
2022/03/04 04:13:10;;;;;;;8.33;5.27;;;0.30;99.90;;;;;;4999711;28;20191;-78
2022/03/04 04:15:35;;;;;;;8.43;5.23;;;0.30;99.90;;;;;;4998467;28;20200;-78
2022/03/04 04:18:01;;;;;;;8.63;5.90;;;0.20;99.90;;;;;;4998252;28;20220;-79
2022/03/04 04:20:26;;;;;;;10.83;5.50;;;0.20;99.90;;;;;;4998370;28;20285;-78
2022/03/04 04:22:52;;;;;;;9.17;5.23;;;0.10;99.90;;;;;;4999806;28;20184;-78
2022/03/04 04:25:18;;;;;;;9.07;5.50;;;0.10;99.90;;;;;;5012893;28;20183;-78
2022/03/04 04:27:43;;;;;;;9.43;5.40;;;0.10;99.90;;;;;;4998043;28;20195;-79
2022/03/04 04:30:09;;;;;;;7.37;4.83;;;0.10;99.90;;;;;;4996816;28;20721;-78
2022/03/04 04:32:35;;;;;;;8.17;4.97;;;0.00;99.90;;;;;;4997374;28;20203;-78
2022/03/04 04:35:00;;;;;;;9.40;5.40;;;0.00;99.90;;;;;;5000028;28;20584;-78
2022/03/04 04:37:26;;;;;;;9.77;5.47;;;-0.10;99.90;;;;;;4997913;28;20299;-77
2022/03/04 04:39:52;;;;;;;6.43;5.03;;;-0.10;99.90;;;;;;4999237;28;20195;-78
2022/03/04 04:42:17;;;;;;;8.07;5.33;;;-0.20;99.90;;;;;;4998003;28;20188;-78
2022/03/04 04:44:43;;;;;;;7.83;4.87;;;-0.20;99.90;;;;;;4999620;28;20226;-78
2022/03/04 04:47:09;;;;;;;9.23;5.30;;;-0.10;99.90;;;;;;4999432;28;20191;-79
2022/03/04 04:49:36;;;;;;;7.93;4.93;;;-0.10;99.90;;;;;;4998824;28;20182;-79
2022/03/04 04:52:04;;;;;;;7.73;5.30;;;-0.10;99.90;;;;;;5012803;28;20579;-79
2022/03/04 04:54:30;;;;;;;8.17;5.23;;;-0.20;99.90;;;;;;5003762;28;21130;-79
2022/03/04 04:56:56;;;;;;;9.27;5.07;;;-0.20;99.90;;;;;;5005138;28;20466;-79
2022/03/04 04:59:21;;;;;;;8.47;5.00;;;-0.30;99.90;;;;;;5004366;28;20180;-78
2022/03/04 05:01:47;;;;;;;7.53;5.10;;;-0.30;99.90;;;;;;5017483;28;20746;-78
2022/03/04 05:04:12;;;;;;;6.93;5.10;;;-0.30;99.90;;;;;;5000988;28;20207;-78
2022/03/04 05:06:38;;;;;;;7.80;5.27;;;-0.40;99.90;;;;;;5004046;28;20202;-78
2022/03/04 05:09:03;;;;;;;7.87;4.73;;;-0.40;99.90;;;;;;5005105;28;20184;-79
2022/03/04 05:11:29;;;;;;;9.07;5.20;;;-0.30;99.90;;;;;;5003779;28;20222;-78
2022/03/04 05:13:55;;;;;;;7.90;4.83;;;-0.30;99.90;;;;;;5010667;28;20198;-78
2022/03/04 05:16:21;;;;;;;8.00;4.93;;;-0.30;99.90;;;;;;5002445;28;20681;-78
2022/03/04 05:18:47;;;;;;;8.80;5.23;;;-0.30;99.90;;;;;;5003616;28;20191;-78
2022/03/04 05:21:12;;;;;;;8.57;5.27;;;-0.20;99.90;;;;;;5001379;28;20199;-78
2022/03/04 05:26:22;;;;;;;9.10;5.27;;;-0.10;99.90;;;;;;5001306;28;20303;-77
2022/03/04 05:28:48;;;;;;;8.03;5.13;;;-0.10;99.90;;;;;;4998593;28;20279;-78
2022/03/04 05:31:14;;;;;;;8.57;5.63;;;-0.10;99.90;;;;;;4999016;28;20215;-78
2022/03/04 05:33:39;;;;;;;9.50;5.77;;;0.00;99.90;;;;;;5000841;28;20184;-78
2022/03/04 05:36:05;;;;;;;8.60;5.63;;;0.00;99.90;;;;;;4999547;28;20196;-78
2022/03/04 05:38:30;;;;;;;11.50;5.37;;;0.00;99.90;;;;;;4999338;28;20176;-77
2022/03/04 05:40:56;;;;;;;7.93;5.07;;;-0.10;99.90;;;;;;4998097;28;20256;-80
2022/03/04 05:43:21;;;;;;;9.43;5.20;;;0.00;99.90;;;;;;4999471;28;20239;-78
2022/03/04 05:45:47;;;;;;;9.53;5.37;;;0.00;99.90;;;;;;5000090;28;20658;-78
2022/03/04 05:48:13;;;;;;;8.60;5.03;;;0.00;99.90;;;;;;4999025;28;20184;-78
2022/03/04 05:50:38;;;;;;;9.47;5.53;;;0.00;99.90;;;;;;4998858;28;20302;-78
2022/03/04 05:53:04;;;;;;;8.83;5.60;;;0.10;99.90;;;;;;5000083;28;20198;-77
2022/03/04 05:55:30;;;;;;;9.07;5.67;;;0.10;99.90;;;;;;4998078;28;20314;-80
2022/03/04 05:57:55;;;;;;;6.67;5.10;;;0.10;99.90;;;;;;4999644;28;20239;-80
2022/03/04 06:00:21;;;;;;;8.23;5.30;;;0.10;99.90;;;;;;5001130;28;20202;-80
2022/03/04 06:02:47;;;;;;;7.40;4.93;;;0.10;99.90;;;;;;4997105;28;20752;-80
2022/03/04 06:05:13;;;;;;;9.77;5.50;;;0.10;99.90;;;;;;4996543;28;20610;-80
2022/03/04 06:07:38;;;;;;;9.67;5.73;;;0.10;99.90;;;;;;4998908;28;20212;-79
2022/03/04 06:10:04;;;;;;;8.63;5.33;;;0.10;99.90;;;;;;4999662;28;20207;-78
2022/03/04 06:12:30;;;;;;;9.90;5.47;;;0.10;99.90;;;;;;4995762;28;20440;-79
2022/03/04 06:14:55;;;;;;;8.83;5.83;;;0.20;99.90;;;;;;5001615;28;20290;-78
2022/03/04 06:17:21;;;;;;;8.10;4.97;;;0.20;99.90;;;;;;4998409;28;20568;-78
2022/03/04 06:19:47;;;;;;;9.00;5.23;;;0.20;99.90;;;;;;4999681;28;20658;-78
2022/03/04 06:22:13;;;;;;;8.37;5.63;;;0.30;99.90;;;;;;4999544;28;20360;-78
2022/03/04 06:24:38;;;;;;;8.43;5.23;;;0.30;99.90;;;;;;4998106;28;20262;-78
2022/03/04 06:27:04;;;;;;;7.47;5.13;;;0.30;99.90;;;;;;5003814;28;20218;-78
2022/03/04 06:29:30;;;;;;;10.93;5.23;;;0.40;99.90;;;;;;4999501;28;20657;-78
2022/03/04 06:31:55;;;;;;;8.83;5.40;;;0.40;99.90;;;;;;5002698;28;20789;-78
2022/03/04 06:34:21;;;;;;;8.90;5.80;;;0.40;99.90;;;;;;5000769;28;20187;-78
2022/03/04 06:36:46;;;;;;;10.60;5.83;;;0.40;99.90;;;;;;5001420;28;20208;-78
2022/03/04 06:39:12;;;;;;;10.30;6.37;;;0.40;99.90;;;;;;5016250;28;20626;-78
2022/03/04 06:41:38;;;;;;;10.57;6.60;;;0.50;99.90;;;;;;4998854;28;20629;-77
2022/03/04 06:44:04;;;;;;;11.10;6.90;;;0.50;99.90;;;;;;4999695;28;20192;-78
2022/03/04 06:46:29;;;;;;;12.30;6.23;;;0.60;99.90;;;;;;4997135;28;20564;-78
2022/03/04 06:48:55;;;;;;;11.60;7.13;;;0.60;99.90;;;;;;4999147;28;20183;-78
2022/03/04 06:51:21;;;;;;;10.37;6.43;;;0.70;99.90;;;;;;4997085;28;20288;-77
2022/03/04 06:53:46;;;;;;;9.70;6.17;;;0.70;99.90;;;;;;4999398;28;20633;-77
2022/03/04 06:56:15;;;;;;;9.77;6.10;;;0.70;99.90;;;;;;4992822;28;20188;-79
2022/03/04 06:58:41;;;;;;;11.33;6.47;;;0.60;99.90;;;;;;5000051;28;21092;-77
2022/03/04 07:01:07;;;;;;;11.37;5.80;;;0.80;99.90;;;;;;4996884;28;20206;-78
2022/03/04 07:03:33;;;;;;;10.47;6.17;;;0.80;99.90;;;;;;4997071;28;20570;-78
2022/03/04 07:05:59;;;;;;;10.40;6.20;;;0.80;99.90;;;;;;4998440;28;20184;-77
2022/03/04 07:08:24;;;;;;;9.97;6.40;;;0.80;99.90;;;;;;4997799;28;20270;-77
2022/03/04 07:10:50;;;;;;;10.13;6.53;;;0.80;99.90;;;;;;4998785;28;20208;-78
2022/03/04 07:13:16;;;;;;;10.83;6.23;;;0.90;99.90;;;;;;4999009;28;20179;-78
2022/03/04 07:15:42;;;;;;;9.63;6.20;;;0.90;99.90;;;;;;5014647;28;20198;-79
2022/03/04 07:18:07;;;;;;;10.87;6.50;;;1.00;99.90;;;;;;5014694;28;20204;-77
2022/03/04 07:20:33;;;;;;;10.23;6.33;;;1.10;99.90;;;;;;4999285;28;20209;-78
2022/03/04 07:22:59;;;;;;;11.50;7.00;;;1.10;99.90;;;;;;5000071;28;20190;-78
2022/03/04 07:25:25;;;;;;;11.13;7.10;;;1.20;99.90;;;;;;5000237;28;20180;-77
2022/03/04 07:27:50;;;;;;;13.90;8.90;;;1.20;99.90;;;;;;5001713;28;20195;-78
2022/03/04 07:30:17;;;;;;;15.07;9.73;;;1.30;99.90;;;;;;4995540;28;20239;-78
2022/03/04 07:32:43;;;;;;;18.23;11.10;;;1.30;99.90;;;;;;4998459;28;20183;-77
2022/03/04 07:35:11;;;;;;;47.77;26.13;;;1.30;99.90;;;;;;5013058;28;20597;-78
2022/03/04 07:37:38;;;;;;;18.70;10.63;;;1.40;99.90;;;;;;5004423;28;20299;-77
2022/03/04 07:40:05;;;;;;;29.37;16.10;;;1.40;99.90;;;;;;5012658;28;20192;-78
2022/03/04 07:42:30;;;;;;;17.07;9.07;;;1.40;99.90;;;;;;5012650;28;20274;-77
2022/03/04 07:44:56;;;;;;;38.87;23.47;;;1.40;99.90;;;;;;4998047;28;20281;-78
2022/03/04 07:47:22;;;;;;;17.40;11.80;;;1.50;99.90;;;;;;4997528;28;20220;-78
2022/03/04 07:49:47;;;;;;;24.27;16.07;;;1.60;99.90;;;;;;4996755;28;20273;-76
2022/03/04 07:52:13;;;;;;;15.17;9.30;;;1.60;99.90;;;;;;4999878;28;20207;-78
2022/03/04 07:54:39;;;;;;;14.57;8.30;;;1.70;99.90;;;;;;5012724;28;20194;-78
2022/03/04 07:57:04;;;;;;;20.43;12.77;;;1.80;99.90;;;;;;4999217;28;20224;-78
2022/03/04 07:59:30;;;;;;;11.63;7.53;;;1.80;99.90;;;;;;5013219;28;20183;-78
2022/03/04 08:01:56;;;;;;;10.57;6.67;;;1.90;99.90;;;;;;5014458;28;20208;-77
2022/03/04 08:04:22;;;;;;;14.47;9.53;;;2.00;99.90;;;;;;4998161;28;20195;-76
2022/03/04 08:06:49;;;;;;;11.63;7.90;;;2.10;99.90;;;;;;5015644;28;20278;-77
2022/03/04 08:09:14;;;;;;;11.40;6.77;;;2.20;99.90;;;;;;5013150;28;20191;-78
2022/03/04 08:11:40;;;;;;;8.63;5.87;;;2.20;99.90;;;;;;5000848;28;20265;-77
2022/03/04 08:14:06;;;;;;;9.03;5.97;;;2.20;99.90;;;;;;4996575;28;20214;-78
2022/03/04 08:16:33;;;;;;;10.30;6.17;;;2.30;99.90;;;;;;5013390;28;20291;-78
2022/03/04 08:19:02;;;;;;;9.33;6.83;;;2.30;99.90;;;;;;5014123;28;20188;-77
2022/03/04 08:21:27;;;;;;;9.20;5.87;;;2.40;99.90;;;;;;5001186;28;20211;-77
2022/03/04 08:23:53;;;;;;;11.13;8.57;;;2.40;99.90;;;;;;4998483;28;20628;-78
2022/03/04 08:26:20;;;;;;;9.50;6.73;;;2.50;99.90;;;;;;5015812;28;20715;-77
2022/03/04 08:28:45;;;;;;;7.80;5.83;;;2.60;99.90;;;;;;5015035;28;20203;-78
2022/03/04 08:31:11;;;;;;;10.20;6.30;;;2.60;99.90;;;;;;5002014;28;20663;-76
2022/03/04 08:33:38;;;;;;;9.77;6.33;;;2.50;99.90;;;;;;5017375;28;20204;-77
2022/03/04 08:36:05;;;;;;;8.80;5.97;;;2.60;99.90;;;;;;4998559;28;20271;-77
2022/03/04 08:38:31;;;;;;;8.67;6.17;;;2.80;99.90;;;;;;5001056;28;20212;-77
2022/03/04 08:40:56;;;;;;;8.83;6.10;;;2.80;99.90;;;;;;5001756;28;20211;-77
2022/03/04 08:43:22;;;;;;;11.27;6.33;;;2.80;99.90;;;;;;5002739;28;20211;-77
2022/03/04 08:45:48;;;;;;;10.20;6.40;;;3.00;99.90;;;;;;5003574;28;20187;-77
2022/03/04 08:48:13;;;;;;;8.90;5.63;;;3.00;99.90;;;;;;5005360;28;20184;-76
2022/03/04 08:50:39;;;;;;;8.40;6.00;;;2.90;99.90;;;;;;4994972;28;20651;-78
2022/03/04 08:53:04;;;;;;;8.87;6.10;;;3.10;99.90;;;;;;4998417;28;20199;-77
2022/03/04 08:55:30;;;;;;;10.30;6.13;;;3.10;99.90;;;;;;5012800;28;20278;-78
2022/03/04 08:57:57;;;;;;;8.90;5.50;;;3.20;99.90;;;;;;4997476;28;20215;-78
2022/03/04 09:00:24;;;;;;;11.60;6.30;;;3.10;99.90;;;;;;5012073;28;20751;-78
2022/03/04 09:02:49;;;;;;;11.63;6.60;;;3.30;99.90;;;;;;4995516;28;20199;-78
2022/03/04 09:05:15;;;;;;;11.53;7.23;;;3.40;99.90;;;;;;5013834;28;20186;-78
2022/03/04 09:07:41;;;;;;;11.60;6.07;;;3.30;99.90;;;;;;4995882;28;20230;-78
2022/03/04 09:10:07;;;;;;;11.10;5.93;;;3.40;99.90;;;;;;5014161;28;20180;-77
2022/03/04 09:12:33;;;;;;;11.13;6.00;;;3.60;99.90;;;;;;4996706;28;20323;-77
2022/03/04 09:14:58;;;;;;;11.50;7.30;;;3.70;99.90;;;;;;5011464;28;20271;-78
2022/03/04 09:17:24;;;;;;;10.73;6.20;;;3.70;99.90;;;;;;5013409;28;20203;-78
2022/03/04 09:19:50;;;;;;;9.47;6.00;;;3.70;99.90;;;;;;5011925;28;20675;-78
2022/03/04 09:22:16;;;;;;;9.10;6.90;;;3.60;99.90;;;;;;4995989;28;20215;-78
2022/03/04 09:24:41;;;;;;;9.13;5.93;;;3.70;99.90;;;;;;4995797;28;20543;-78
2022/03/04 09:27:07;;;;;;;9.07;6.23;;;3.90;99.90;;;;;;4996893;28;20192;-78
2022/03/04 09:29:33;;;;;;;11.40;6.40;;;3.90;99.90;;;;;;5000163;28;20237;-78
2022/03/04 09:31:59;;;;;;;9.93;6.83;;;3.90;99.90;;;;;;5011423;28;20200;-77
2022/03/04 09:34:25;;;;;;;13.30;6.37;;;3.90;99.90;;;;;;5011545;28;20279;-77
2022/03/04 09:36:51;;;;;;;10.07;6.27;;;3.90;99.90;;;;;;4999003;28;20295;-78
2022/03/04 09:39:16;;;;;;;9.30;6.03;;;3.70;99.90;;;;;;5007086;28;20198;-79
2022/03/04 09:41:45;;;;;;;9.17;5.60;;;3.60;99.90;;;;;;4996599;28;21216;-78
2022/03/04 09:44:13;;;;;;;9.77;6.07;;;3.60;99.90;;;;;;4998998;28;20589;-78
2022/03/04 09:46:41;;;;;;;9.37;5.93;;;3.60;99.90;;;;;;4998429;28;20611;-79
2022/03/04 09:49:08;;;;;;;9.53;5.67;;;3.60;99.90;;;;;;5012138;28;20199;-77
2022/03/04 09:51:34;;;;;;;10.13;5.70;;;3.70;99.90;;;;;;4997708;28;20207;-77
2022/03/04 09:54:00;;;;;;;11.70;5.87;;;3.70;99.90;;;;;;4999571;28;20270;-77
2022/03/04 09:56:25;;;;;;;9.30;5.87;;;3.80;99.90;;;;;;5000831;28;20773;-79
2022/03/04 09:58:51;;;;;;;8.27;5.07;;;3.80;99.90;;;;;;5002140;28;20650;-77
2022/03/04 10:01:17;;;;;;;6.73;4.93;;;3.90;99.90;;;;;;4996571;28;20214;-79
2022/03/04 10:03:50;;;;;;;8.23;5.17;;;4.00;99.90;;;;;;4998706;28;20226;-77
2022/03/04 10:06:18;;;;;;;9.07;5.67;;;4.20;99.90;;;;;;5001248;28;20250;-77
2022/03/04 10:08:45;;;;;;;9.43;5.17;;;4.20;99.90;;;;;;4998613;28;20306;-77
2022/03/04 10:11:12;;;;;;;29.20;15.03;;;4.20;99.90;;;;;;4999064;28;20203;-77
2022/03/04 10:13:53;;;;;;;7.30;4.10;;;4.00;99.90;;;;;;5017615;28;20184;-78
2022/03/04 10:16:29;;;;;;;8.17;5.20;;;3.90;99.90;;;;;;4997849;28;20202;-77
2022/03/04 10:19:15;;;;;;;15.50;10.00;;;4.00;99.90;;;;;;5013240;28;20188;-78
2022/03/04 10:21:50;;;;;;;9.27;5.30;;;3.80;99.90;;;;;;5005646;28;20278;-77
2022/03/04 10:24:39;;;;;;;7.43;4.30;;;3.60;99.90;;;;;;4997002;28;20661;-77
2022/03/04 10:27:09;;;;;;;5.73;4.20;;;3.60;99.90;;;;;;5015348;28;20196;-79
2022/03/04 10:29:49;;;;;;;7.70;4.83;;;3.40;99.90;;;;;;4998351;28;20192;-77
2022/03/04 10:32:18;;;;;;;8.07;4.93;;;3.20;99.90;;;;;;4998314;28;20207;-77
2022/03/04 10:34:54;;;;;;;17.00;8.50;;;3.10;99.90;;;;;;4998797;28;20199;-79
2022/03/04 10:37:40;;;;;;;8.70;4.60;;;3.00;99.90;;;;;;5005723;28;20200;-77
2022/03/04 10:40:12;;;;;;;10.40;5.60;;;2.90;99.90;;;;;;5015072;28;20266;-78
2022/03/04 10:42:44;;;;;;;16.00;9.50;;;2.70;99.90;;;;;;4998690;28;20270;-78
2022/03/04 10:45:24;;;;;;;14.90;8.70;;;2.50;99.90;;;;;;5015348;28;20195;-82
2022/03/04 10:47:56;;;;;;;6.87;4.07;;;2.40;99.90;;;;;;5000504;28;20269;-78
2022/03/04 10:50:42;;;;;;;7.47;4.10;;;2.40;99.90;;;;;;4997465;28;20214;-78
2022/03/04 10:53:13;;;;;;;7.03;4.57;;;2.30;99.90;;;;;;5016675;28;20195;-79
2022/03/04 10:55:50;;;;;;;8.50;4.90;;;2.20;99.90;;;;;;4998621;28;20242;-77
2022/03/04 10:58:17;;;;;;;8.63;4.80;;;2.10;99.90;;;;;;5014182;28;20215;-80
2022/03/04 11:01:05;;;;;;;14.23;9.27;;;2.20;99.90;;;;;;5016566;28;20580;-77
2022/03/04 11:03:33;;;;;;;5.73;3.50;;;2.20;99.90;;;;;;5017084;28;20234;-78
2022/03/04 11:06:11;;;;;;;5.27;3.20;;;2.30;99.90;;;;;;5018787;28;20188;-77
2022/03/04 11:08:37;;;;;;;5.40;3.60;;;2.40;99.90;;;;;;5016290;28;20195;-77
2022/03/04 11:11:03;;;;;;;4.80;3.30;;;2.50;99.90;;;;;;5018173;28;20219;-79
2022/03/04 11:13:34;;;;;;;9.97;6.67;;;2.60;99.90;;;;;;5017285;28;20188;-77
2022/03/04 11:16:02;;;;;;;23.17;13.30;;;2.80;99.90;;;;;;5018942;28;20199;-77
2022/03/04 11:18:28;;;;;;;10.97;6.77;;;2.90;99.90;;;;;;5001691;28;20226;-77
2022/03/04 11:20:57;;;;;;;7.23;4.67;;;2.90;99.90;;;;;;5017275;28;20235;-77
2022/03/04 11:23:25;;;;;;;5.53;3.90;;;3.00;99.90;;;;;;5002776;28;20264;-79
2022/03/04 11:25:59;;;;;;;5.70;3.17;;;3.00;99.90;;;;;;5001435;28;20180;-77
2022/03/04 11:28:34;;;;;;;5.27;3.40;;;2.90;99.90;;;;;;4997524;28;20196;-80
2022/03/04 11:31:01;;;;;;;5.57;3.60;;;3.30;99.90;;;;;;5000785;28;20199;-79
2022/03/04 11:33:32;;;;;;;5.53;3.53;;;3.40;99.90;;;;;;4999320;28;20215;-78
2022/03/04 11:36:08;;;;;;;5.17;3.70;;;3.80;99.90;;;;;;5009260;28;20252;-79
2022/03/04 11:38:49;;;;;;;7.07;4.47;;;4.00;99.90;;;;;;4999351;28;20263;-77
2022/03/04 11:41:27;;;;;;;4.70;3.47;;;4.40;99.90;;;;;;4998635;28;20199;-80
2022/03/04 11:43:55;;;;;;;4.60;3.10;;;4.80;99.90;;;;;;4997020;28;20259;-76
2022/03/04 11:46:23;;;;;;;5.00;3.13;;;4.90;99.90;;;;;;4999611;28;20207;-77
2022/03/04 11:49:27;;;;;;;3.80;3.07;;;5.10;99.90;;;;;;5001344;28;20191;-77
2022/03/04 11:52:27;;;;;;;4.70;3.30;;;4.90;99.90;;;;;;5006381;28;20227;-77
2022/03/04 11:54:58;;;;;;;4.70;3.40;;;4.80;99.90;;;;;;5008781;28;20286;-78
2022/03/04 11:57:41;;;;;;;5.07;3.27;;;4.70;99.90;;;;;;4999723;28;20202;-79
2022/03/04 12:00:10;;;;;;;6.17;3.20;;;4.80;99.90;;;;;;5007239;28;20270;-79
2022/03/04 12:02:47;;;;;;;4.33;3.23;;;5.00;99.90;;;;;;4998653;28;20685;-77
2022/03/04 12:05:13;;;;;;;4.93;3.47;;;4.80;99.90;;;;;;4998588;28;20179;-77
2022/03/04 12:07:43;;;;;;;6.70;2.70;;;4.70;99.90;;;;;;4999672;28;20283;-80
2022/03/04 12:10:12;;;;;;;3.10;2.27;;;4.60;99.90;;;;;;4999647;28;20654;-77
2022/03/04 12:12:39;;;;;;;4.43;2.23;;;4.50;99.90;;;;;;4998702;28;20239;-78
2022/03/04 12:15:29;;;;;;;3.77;2.00;;;4.40;99.90;;;;;;5014817;28;20192;-77
2022/03/04 12:18:04;;;;;;;5.33;2.10;;;4.20;99.90;;;;;;4998432;28;20208;-77
2022/03/04 12:20:39;;;;;;;3.10;2.23;;;4.20;99.90;;;;;;5016730;28;20677;-77
2022/03/04 12:23:33;;;;;;;2.80;2.10;;;4.10;99.90;;;;;;5006820;28;20191;-76
2022/03/04 12:25:58;;;;;;;3.30;2.60;;;4.00;99.90;;;;;;5008280;28;20196;-80
2022/03/04 12:28:34;;;;;;;5.23;2.70;;;4.00;99.90;;;;;;5002237;28;20263;-79
2022/03/04 12:31:04;;;;;;;3.10;2.13;;;4.10;99.90;;;;;;4999721;28;20211;-77
2022/03/04 12:33:35;;;;;;;3.73;2.37;;;4.20;99.90;;;;;;5001417;28;20184;-79
2022/03/04 12:36:05;;;;;;;3.33;2.20;;;4.20;99.90;;;;;;5001386;28;20197;-77
2022/03/04 12:38:50;;;;;;;3.70;2.17;;;4.40;99.90;;;;;;4998867;28;20207;-80
2022/03/04 12:41:18;;;;;;;3.93;2.37;;;4.60;99.90;;;;;;5002691;28;20204;-79
2022/03/04 12:43:51;;;;;;;4.67;2.80;;;4.70;99.90;;;;;;5005602;28;20187;-78
2022/03/04 12:46:20;;;;;;;3.77;2.60;;;4.80;99.90;;;;;;5024337;28;20184;-78
2022/03/04 12:48:47;;;;;;;4.27;2.60;;;4.70;99.90;;;;;;5022789;28;20187;-78
2022/03/04 12:51:21;;;;;;;3.80;2.00;;;4.50;99.90;;;;;;5006367;28;20200;-78
2022/03/04 12:53:47;;;;;;;3.43;2.13;;;4.40;99.90;;;;;;5018559;28;20202;-79
2022/03/04 12:56:13;;;;;;;3.57;2.30;;;4.30;99.90;;;;;;4996426;28;20222;-79
2022/03/04 12:58:44;;;;;;;3.60;2.53;;;4.40;99.90;;;;;;5014084;28;20278;-79